Time;durP1;ratioP1;P1;durP2;ratioP2;P2;SDS_P1;SDS_P2;PMS_P1;PMS_P2;Temp;Humidity;BMP_temperature;BMP_pressure;BME280_temperature;BME280_humidity;BME280_pressure;Samples;Min_cycle;Max_cycle;Signal;HPM_P1;HPM_P2
2022/07/07 00:01:29;;;;;;;45.08;37.10;;;22.70;93.60;;;;;;5054433;28;20499;-81
2022/07/07 00:03:55;;;;;;;43.28;38.45;;;22.70;93.50;;;;;;5054654;28;20031;-81
2022/07/07 00:06:26;;;;;;;46.38;37.53;;;22.70;93.50;;;;;;5054917;28;20041;-81
2022/07/07 00:08:54;;;;;;;46.53;38.63;;;22.70;93.60;;;;;;5054557;28;20074;-81
2022/07/07 00:11:21;;;;;;;47.03;40.47;;;22.60;93.60;;;;;;5036793;28;20033;-81
2022/07/07 00:13:47;;;;;;;47.53;33.00;;;22.70;93.80;;;;;;5055239;28;20032;-80
2022/07/07 00:16:13;;;;;;;35.10;28.27;;;22.70;93.70;;;;;;5039159;28;20025;-82
2022/07/07 00:18:38;;;;;;;40.22;33.17;;;22.60;93.60;;;;;;5054516;28;20028;-81
2022/07/07 00:21:04;;;;;;;46.72;38.58;;;22.70;93.70;;;;;;5027420;28;20056;-81
2022/07/07 00:23:30;;;;;;;40.75;33.95;;;22.70;93.80;;;;;;5054981;28;20040;-82
2022/07/07 00:25:57;;;;;;;40.47;31.15;;;22.70;93.80;;;;;;5055443;28;20532;-81
2022/07/07 00:28:22;;;;;;;41.78;34.92;;;22.70;93.70;;;;;;5054536;28;20366;-81
2022/07/07 00:30:48;;;;;;;42.53;32.67;;;22.70;93.60;;;;;;5035894;28;20021;-80
2022/07/07 00:33:14;;;;;;;40.13;32.22;;;22.60;93.70;;;;;;5054556;28;20033;-80
2022/07/07 00:35:41;;;;;;;37.35;29.70;;;22.60;93.80;;;;;;5056706;28;20023;-80
2022/07/07 00:38:07;;;;;;;34.20;30.67;;;22.60;93.70;;;;;;5058012;28;20021;-81
2022/07/07 00:40:33;;;;;;;38.30;31.25;;;22.60;93.80;;;;;;5055513;28;20033;-80
2022/07/07 00:42:59;;;;;;;32.80;28.50;;;22.60;94.00;;;;;;5054468;28;20184;-80
2022/07/07 00:45:25;;;;;;;28.17;25.15;;;22.60;93.90;;;;;;5036370;28;20022;-81
2022/07/07 00:47:52;;;;;;;39.73;26.30;;;22.60;93.80;;;;;;5055804;28;20100;-80
2022/07/07 00:50:19;;;;;;;30.58;26.60;;;22.50;94.00;;;;;;5054324;28;20021;-81
2022/07/07 00:52:45;;;;;;;29.98;24.35;;;22.50;94.10;;;;;;5054638;28;20379;-80
2022/07/07 00:55:12;;;;;;;25.23;22.60;;;22.50;93.80;;;;;;5056486;28;20094;-80
2022/07/07 00:57:38;;;;;;;27.77;23.90;;;22.50;94.00;;;;;;5055889;28;20274;-81
2022/07/07 01:00:11;;;;;;;25.20;22.23;;;22.50;94.10;;;;;;5058267;28;20410;-80
2022/07/07 01:02:37;;;;;;;24.08;21.60;;;22.50;94.00;;;;;;5056286;28;20049;-81
2022/07/07 01:05:05;;;;;;;24.50;21.15;;;22.50;94.00;;;;;;5055296;28;20036;-82
2022/07/07 01:07:32;;;;;;;25.33;21.88;;;22.50;94.00;;;;;;5055402;28;20035;-81
2022/07/07 01:09:59;;;;;;;28.50;23.48;;;22.40;93.90;;;;;;5056417;28;20029;-79
2022/07/07 01:12:25;;;;;;;28.27;22.63;;;22.50;93.90;;;;;;5054562;28;20021;-80
2022/07/07 01:14:51;;;;;;;26.92;22.25;;;22.50;94.00;;;;;;5051349;28;20027;-81
2022/07/07 01:17:17;;;;;;;24.33;21.67;;;22.40;94.10;;;;;;5052920;28;20032;-80
2022/07/07 01:19:43;;;;;;;27.00;23.90;;;22.50;94.30;;;;;;5053707;28;20395;-79
2022/07/07 01:22:14;;;;;;;34.42;28.80;;;22.40;94.10;;;;;;5053439;28;20059;-81
2022/07/07 01:24:40;;;;;;;28.23;25.13;;;22.40;93.80;;;;;;5053327;28;20407;-80
2022/07/07 01:27:07;;;;;;;27.80;24.88;;;22.40;93.90;;;;;;5053355;28;20059;-80
2022/07/07 01:29:37;;;;;;;26.60;23.80;;;22.40;93.90;;;;;;5048131;28;20052;-80
2022/07/07 01:32:04;;;;;;;25.20;22.45;;;22.40;93.90;;;;;;5052534;28;20017;-81
2022/07/07 01:34:30;;;;;;;;;;;22.50;93.90;;;;;;5053468;28;20407;-80
2022/07/07 01:36:56;;;;;;;32.72;28.50;;;22.50;93.60;;;;;;5054655;28;19909;-81
2022/07/07 01:39:22;;;;;;;30.92;25.58;;;22.40;93.80;;;;;;5053431;28;20017;-80
2022/07/07 01:41:48;;;;;;;29.02;25.75;;;22.40;93.90;;;;;;5052783;28;20025;-79
2022/07/07 01:44:13;;;;;;;32.05;27.80;;;22.40;93.90;;;;;;5052550;28;20819;-80
2022/07/07 01:46:39;;;;;;;33.38;26.48;;;22.40;93.90;;;;;;5052419;28;20097;-79
2022/07/07 01:49:05;;;;;;;28.17;25.15;;;22.40;93.90;;;;;;5052010;28;20036;-79
2022/07/07 01:51:31;;;;;;;33.25;24.67;;;22.50;94.00;;;;;;5039334;28;20029;-80
2022/07/07 01:53:57;;;;;;;32.85;29.48;;;22.50;93.80;;;;;;5052386;28;20502;-81
2022/07/07 01:56:23;;;;;;;31.17;27.83;;;22.50;93.50;;;;;;5051116;28;20039;-82
2022/07/07 01:58:48;;;;;;;28.98;26.25;;;22.50;93.40;;;;;;5052492;28;20581;-82
2022/07/07 02:01:14;;;;;;;30.33;27.02;;;22.40;93.40;;;;;;5052347;28;20048;-81
2022/07/07 02:03:40;;;;;;;31.23;27.20;;;22.50;93.40;;;;;;5052866;28;20033;-81
2022/07/07 02:06:06;;;;;;;26.65;23.88;;;22.50;93.30;;;;;;5035072;28;20128;-82
2022/07/07 02:08:32;;;;;;;29.60;26.45;;;22.50;93.50;;;;;;5044702;28;20051;-81
2022/07/07 02:11:12;;;;;;;26.65;24.05;;;22.40;93.30;;;;;;5058356;28;20017;-82
2022/07/07 02:13:49;;;;;;;34.38;26.42;;;22.40;93.40;;;;;;5038971;28;20025;-81
2022/07/07 02:16:17;;;;;;;27.23;24.43;;;22.40;93.40;;;;;;5052435;28;20040;-82
2022/07/07 02:18:44;;;;;;;29.35;26.08;;;22.40;93.20;;;;;;5044207;28;20315;-82
2022/07/07 02:21:10;;;;;;;;;;;22.40;93.20;;;;;;5047103;28;20051;-80
2022/07/07 02:23:38;;;;;;;28.63;24.05;;;22.40;93.00;;;;;;5034472;28;19908;-82
2022/07/07 02:26:04;;;;;;;;;;;22.40;93.20;;;;;;5052510;28;20104;-81
2022/07/07 02:28:30;;;;;;;31.75;26.73;;;22.40;93.00;;;;;;5044549;28;19982;-81
2022/07/07 02:30:57;;;;;;;28.42;25.70;;;22.40;93.40;;;;;;5052132;28;20494;-83
2022/07/07 02:33:23;;;;;;;30.92;25.63;;;22.40;93.30;;;;;;5051670;28;20051;-81
2022/07/07 02:35:50;;;;;;;34.00;29.77;;;22.40;93.30;;;;;;5051839;28;20017;-81
2022/07/07 02:38:16;;;;;;;33.13;29.52;;;22.50;93.30;;;;;;5051681;28;20436;-81
2022/07/07 02:40:42;;;;;;;32.47;28.98;;;22.50;93.20;;;;;;5051728;28;20021;-81
2022/07/07 02:43:12;;;;;;;37.35;33.17;;;22.50;93.00;;;;;;5054741;28;20021;-80
2022/07/07 02:45:46;;;;;;;38.83;34.65;;;22.60;92.70;;;;;;5061124;28;20478;-81
2022/07/07 02:48:14;;;;;;;32.90;26.13;;;22.60;92.60;;;;;;5045527;28;20029;-82
2022/07/07 02:50:40;;;;;;;24.25;21.45;;;22.70;92.70;;;;;;5033616;28;20033;-83
2022/07/07 02:53:08;;;;;;;25.58;21.17;;;22.70;92.30;;;;;;5051656;28;20040;-82
2022/07/07 02:55:34;;;;;;;;;;;22.80;92.20;;;;;;5033925;28;20115;-80
2022/07/07 02:58:01;;;;;;;18.45;16.70;;;22.90;92.00;;;;;;5051475;28;19959;-80
2022/07/07 03:00:28;;;;;;;19.05;17.10;;;22.80;91.70;;;;;;5051561;28;20501;-81
2022/07/07 03:02:54;;;;;;;19.67;17.67;;;22.80;91.70;;;;;;5046728;28;20052;-81
2022/07/07 03:05:21;;;;;;;18.35;16.45;;;22.90;91.70;;;;;;5051681;28;20033;-81
2022/07/07 03:07:47;;;;;;;19.08;16.15;;;22.90;91.40;;;;;;5033273;28;20024;-80
2022/07/07 03:10:13;;;;;;;17.30;15.57;;;23.00;91.30;;;;;;5043672;28;20478;-81
2022/07/07 03:12:39;;;;;;;18.48;16.15;;;23.30;90.90;;;;;;5046982;28;20024;-80
2022/07/07 03:15:06;;;;;;;17.98;14.45;;;23.50;90.50;;;;;;5044270;28;20067;-80
2022/07/07 03:17:31;;;;;;;17.52;14.93;;;23.70;90.10;;;;;;5033505;28;20017;-80
2022/07/07 03:19:57;;;;;;;16.17;14.07;;;23.90;89.20;;;;;;5051362;28;20441;-80
2022/07/07 03:22:23;;;;;;;15.48;13.98;;;24.00;88.10;;;;;;5033483;28;20116;-81
2022/07/07 03:24:49;;;;;;;16.15;13.13;;;24.20;87.40;;;;;;5051255;28;20044;-80
2022/07/07 03:27:14;;;;;;;15.90;14.32;;;24.30;86.40;;;;;;5050111;28;20027;-80
2022/07/07 03:29:40;;;;;;;15.95;14.23;;;24.50;86.50;;;;;;5044133;28;20440;-80
2022/07/07 03:32:06;;;;;;;16.65;14.25;;;24.50;85.70;;;;;;5052740;28;20374;-80
2022/07/07 03:34:32;;;;;;;14.27;12.80;;;24.60;85.60;;;;;;5054043;28;20032;-81
2022/07/07 03:36:58;;;;;;;14.15;12.75;;;24.80;84.90;;;;;;5054136;28;20021;-80
2022/07/07 03:39:24;;;;;;;15.07;12.63;;;24.90;84.30;;;;;;5054996;28;20028;-81
2022/07/07 03:41:49;;;;;;;12.88;11.75;;;25.10;83.90;;;;;;5053597;28;20406;-81
2022/07/07 03:44:15;;;;;;;15.88;13.32;;;25.30;83.60;;;;;;5033474;28;20398;-81
2022/07/07 03:46:41;;;;;;;23.38;12.80;;;25.40;82.50;;;;;;5051004;28;20036;-82
2022/07/07 03:49:07;;;;;;;14.40;11.52;;;25.60;81.10;;;;;;5051538;28;20021;-82
2022/07/07 03:51:33;;;;;;;13.88;12.57;;;25.60;81.10;;;;;;5051372;28;20091;-82
2022/07/07 03:53:59;;;;;;;13.38;11.90;;;25.60;81.80;;;;;;5053461;28;20079;-81
2022/07/07 03:56:27;;;;;;;14.73;13.30;;;25.60;80.90;;;;;;5055123;28;20029;-83
2022/07/07 03:58:53;;;;;;;18.65;13.10;;;25.50;81.40;;;;;;5055549;28;20059;-81
2022/07/07 04:01:19;;;;;;;22.85;13.48;;;25.40;81.70;;;;;;5037279;28;20076;-82
2022/07/07 04:03:44;;;;;;;15.07;13.32;;;25.20;82.00;;;;;;5054807;28;20036;-83
2022/07/07 04:06:10;;;;;;;14.40;13.07;;;25.10;82.10;;;;;;5054724;28;20029;-82
2022/07/07 04:08:36;;;;;;;14.93;13.45;;;25.10;82.30;;;;;;5055166;28;20021;-81
2022/07/07 04:11:02;;;;;;;16.02;12.93;;;25.00;83.00;;;;;;5054883;28;20013;-81
2022/07/07 04:13:28;;;;;;;15.20;13.57;;;24.90;83.10;;;;;;5054289;28;20033;-81
2022/07/07 04:15:56;;;;;;;13.90;12.63;;;24.90;83.10;;;;;;5054428;28;20017;-80
2022/07/07 04:18:21;;;;;;;15.52;13.95;;;25.20;82.80;;;;;;5054377;28;20021;-83
2022/07/07 04:20:48;;;;;;;17.15;13.80;;;25.30;81.70;;;;;;5052786;28;20394;-83
2022/07/07 04:23:14;;;;;;;15.97;14.43;;;25.20;81.50;;;;;;5036517;28;20901;-81
2022/07/07 04:25:40;;;;;;;15.37;13.83;;;25.20;81.50;;;;;;5054253;28;20017;-83
2022/07/07 04:28:07;;;;;;;14.70;13.07;;;25.20;81.40;;;;;;5047185;28;20377;-81
2022/07/07 04:30:33;;;;;;;19.23;14.80;;;25.00;81.60;;;;;;5054145;28;20021;-82
2022/07/07 04:32:59;;;;;;;14.85;13.45;;;25.00;82.10;;;;;;5054083;28;20112;-79
2022/07/07 04:35:25;;;;;;;12.75;11.40;;;25.10;81.80;;;;;;5053955;28;20447;-81
2022/07/07 04:37:51;;;;;;;15.50;13.85;;;25.00;81.40;;;;;;5055438;28;20043;-80
2022/07/07 04:40:17;;;;;;;13.90;12.70;;;25.10;82.00;;;;;;5054572;28;20095;-79
2022/07/07 04:42:42;;;;;;;15.50;13.82;;;25.10;82.00;;;;;;5036249;28;20120;-80
2022/07/07 04:45:09;;;;;;;19.15;14.07;;;25.20;81.90;;;;;;5053598;28;20063;-81
2022/07/07 04:47:42;;;;;;;19.00;14.60;;;25.40;81.60;;;;;;5053537;28;20021;-81
2022/07/07 04:50:12;;;;;;;19.85;15.68;;;25.80;80.80;;;;;;5035539;28;20654;-82
2022/07/07 04:52:39;;;;;;;19.75;16.00;;;26.00;80.00;;;;;;5053840;28;20024;-80
2022/07/07 04:55:05;;;;;;;;;;;26.10;79.10;;;;;;5046611;28;20108;-83
2022/07/07 04:57:31;;;;;;;19.33;16.03;;;26.30;79.30;;;;;;5055109;28;19905;-81
2022/07/07 04:59:57;;;;;;;20.92;15.63;;;26.30;78.80;;;;;;5063524;28;20045;-82
2022/07/07 05:02:23;;;;;;;17.77;14.32;;;26.60;78.30;;;;;;5066924;28;20067;-81
2022/07/07 05:04:49;;;;;;;17.70;15.55;;;26.80;77.50;;;;;;5054354;28;20024;-80
2022/07/07 05:07:15;;;;;;;17.45;14.82;;;26.90;77.80;;;;;;5055092;28;20082;-81
2022/07/07 05:09:41;;;;;;;18.90;15.85;;;27.00;77.30;;;;;;5035451;28;20024;-82
2022/07/07 05:12:08;;;;;;;18.20;15.43;;;27.00;78.10;;;;;;5053080;28;20025;-82
2022/07/07 05:14:33;;;;;;;19.83;15.80;;;27.10;77.70;;;;;;5047164;28;20521;-82
2022/07/07 05:16:59;;;;;;;17.70;14.73;;;27.50;78.20;;;;;;5053009;28;20258;-82
2022/07/07 05:19:26;;;;;;;16.17;14.35;;;28.20;75.70;;;;;;5053325;28;20083;-81
2022/07/07 05:21:52;;;;;;;17.17;14.02;;;28.80;72.50;;;;;;5051824;28;20021;-83
2022/07/07 05:24:18;;;;;;;15.27;13.50;;;29.30;71.20;;;;;;5053188;28;20033;-81
2022/07/07 05:26:44;;;;;;;14.70;13.35;;;30.00;69.40;;;;;;5051909;28;20020;-82
2022/07/07 05:29:11;;;;;;;19.40;12.90;;;31.10;66.70;;;;;;5053164;28;20084;-81
2022/07/07 05:31:36;;;;;;;13.38;11.98;;;31.90;63.20;;;;;;5055964;28;20029;-81
2022/07/07 05:34:03;;;;;;;14.87;13.23;;;31.70;61.10;;;;;;5057479;28;20021;-82
2022/07/07 05:36:29;;;;;;;14.82;13.25;;;30.90;62.60;;;;;;5056384;28;20028;-81
2022/07/07 05:38:55;;;;;;;14.23;12.73;;;30.70;63.20;;;;;;5056088;28;20028;-81
2022/07/07 05:41:21;;;;;;;18.50;15.97;;;31.20;63.00;;;;;;5054252;28;20021;-82
2022/07/07 05:43:48;;;;;;;18.43;14.70;;;31.30;62.00;;;;;;5052764;28;20108;-81
2022/07/07 05:46:13;;;;;;;;;;;30.80;62.70;;;;;;5053669;28;20104;-82
2022/07/07 05:48:39;;;;;;;16.07;13.53;;;30.40;63.90;;;;;;5053325;28;19959;-82
2022/07/07 05:51:05;;;;;;;15.23;13.40;;;30.50;64.10;;;;;;5035212;28;20472;-80
2022/07/07 05:53:31;;;;;;;15.57;12.60;;;30.40;63.80;;;;;;5056797;28;20037;-82
2022/07/07 05:56:03;;;;;;;15.55;13.63;;;30.20;64.20;;;;;;5055682;28;20071;-81
2022/07/07 05:58:29;;;;;;;17.90;14.32;;;30.30;64.90;;;;;;5056434;28;20501;-81
2022/07/07 06:00:55;;;;;;;15.38;13.98;;;30.40;63.50;;;;;;5056296;28;20025;-81
2022/07/07 06:03:21;;;;;;;18.30;13.93;;;30.50;63.50;;;;;;5055326;28;20053;-81
2022/07/07 06:05:47;;;;;;;19.30;13.80;;;30.70;63.40;;;;;;5035160;28;20025;-82
2022/07/07 06:08:13;;;;;;;12.20;11.00;;;31.00;62.50;;;;;;5053695;28;20482;-81
2022/07/07 06:10:39;;;;;;;12.50;11.13;;;31.40;59.90;;;;;;5055506;28;20353;-81
2022/07/07 06:13:05;;;;;;;11.52;10.35;;;31.20;59.10;;;;;;5055696;28;20367;-81
2022/07/07 06:15:33;;;;;;;17.73;11.17;;;32.30;59.00;;;;;;5055058;28;20056;-81
2022/07/07 06:18:07;;;;;;;13.13;10.77;;;33.50;57.10;;;;;;5031269;28;20052;-80
2022/07/07 06:20:33;;;;;;;12.75;9.52;;;35.20;53.40;;;;;;5048803;28;20029;-80
2022/07/07 06:22:58;;;;;;;11.50;9.33;;;36.30;50.50;;;;;;5048118;28;20075;-80
2022/07/07 06:25:26;;;;;;;14.00;9.33;;;36.90;48.00;;;;;;5055158;28;20025;-81
2022/07/07 06:27:52;;;;;;;11.55;8.15;;;;;;;;;;5044592;28;20349;-80
2022/07/07 06:30:19;;;;;;;12.50;9.13;;;38.20;44.60;;;;;;5059726;28;20474;-81
2022/07/07 06:32:45;;;;;;;11.20;9.02;;;37.50;45.20;;;;;;5055473;28;20044;-80
2022/07/07 06:35:11;;;;;;;10.55;9.70;;;37.10;46.20;;;;;;5047935;28;20037;-81
2022/07/07 06:37:36;;;;;;;14.98;10.70;;;36.60;46.60;;;;;;5035415;28;20028;-81
2022/07/07 06:40:03;;;;;;;11.40;10.27;;;36.40;47.00;;;;;;5052776;28;20021;-81
2022/07/07 06:42:28;;;;;;;16.92;9.82;;;36.70;47.10;;;;;;5053043;28;20277;-81
2022/07/07 06:44:54;;;;;;;11.45;9.80;;;36.80;46.90;;;;;;5035836;28;20502;-81
2022/07/07 06:47:20;;;;;;;13.57;10.53;;;36.80;46.50;;;;;;5052576;28;20100;-81
2022/07/07 06:49:46;;;;;;;13.93;9.90;;;36.80;46.50;;;;;;5052242;28;20056;-81
2022/07/07 06:52:12;;;;;;;15.50;8.95;;;39.10;43.70;;;;;;5054906;28;20100;-81
2022/07/07 06:54:38;;;;;;;;;;;39.10;43.30;;;;;;5051386;28;20525;-80
2022/07/07 06:57:06;;;;;;;10.88;9.18;;;39.50;43.70;;;;;;5054373;28;20382;-80
2022/07/07 06:59:32;;;;;;;12.05;9.05;;;39.00;42.30;;;;;;5062830;28;20378;-81
2022/07/07 07:01:58;;;;;;;12.05;9.80;;;38.90;42.50;;;;;;5066875;28;20080;-81
2022/07/07 07:04:24;;;;;;;11.30;10.05;;;39.00;42.90;;;;;;5066119;28;20028;-80
2022/07/07 07:06:50;;;;;;;14.02;9.52;;;39.50;42.80;;;;;;5056693;28;20028;-80
2022/07/07 07:09:16;;;;;;;11.40;8.27;;;40.60;41.10;;;;;;5058264;28;20028;-80
2022/07/07 07:11:41;;;;;;;10.07;7.95;;;41.40;40.50;;;;;;5050810;28;20078;-82
2022/07/07 07:14:07;;;;;;;10.77;8.27;;;41.90;39.00;;;;;;5051743;28;20065;-82
2022/07/07 07:16:33;;;;;;;10.88;8.63;;;41.50;38.40;;;;;;5048640;28;20453;-81
2022/07/07 07:18:59;;;;;;;9.30;8.48;;;40.30;39.90;;;;;;5051513;28;20044;-82
2022/07/07 07:21:25;;;;;;;11.40;8.45;;;40.70;39.60;;;;;;5053578;28;20060;-81
2022/07/07 07:23:51;;;;;;;10.82;9.27;;;40.20;40.20;;;;;;5052916;28;20456;-80
2022/07/07 07:26:17;;;;;;;10.88;8.95;;;39.90;40.70;;;;;;5052990;28;20021;-80
2022/07/07 07:28:43;;;;;;;11.95;8.55;;;39.50;40.70;;;;;;5054762;28;20100;-78
2022/07/07 07:31:09;;;;;;;11.93;8.57;;;39.40;41.30;;;;;;5039321;28;20463;-80
2022/07/07 07:33:35;;;;;;;14.13;9.00;;;39.80;40.80;;;;;;5057173;28;20029;-80
2022/07/07 07:36:02;;;;;;;11.55;8.98;;;40.40;40.30;;;;;;5038771;28;20021;-81
2022/07/07 07:38:28;;;;;;;9.55;8.57;;;41.30;39.70;;;;;;5060136;28;20033;-80
2022/07/07 07:40:54;;;;;;;9.60;8.13;;;41.50;38.40;;;;;;5064272;28;20036;-81
2022/07/07 07:43:20;;;;;;;;;;;40.90;38.20;;;;;;5057499;28;20029;-79
2022/07/07 07:45:46;;;;;;;10.10;8.95;;;40.80;39.30;;;;;;5044033;28;19999;-77
2022/07/07 07:48:11;;;;;;;;;;;40.50;38.80;;;;;;5038536;28;20033;-80
2022/07/07 07:50:37;;;;;;;12.07;9.15;;;39.50;39.80;;;;;;5066965;28;19912;-80
2022/07/07 07:53:06;;;;;;;12.15;9.13;;;38.70;41.70;;;;;;5050263;28;20112;-80
2022/07/07 07:55:31;;;;;;;11.10;8.70;;;38.70;41.30;;;;;;5054044;28;20055;-78
2022/07/07 07:57:57;;;;;;;12.18;9.55;;;37.90;41.20;;;;;;5067735;28;20021;-79
2022/07/07 08:00:23;;;;;;;10.20;9.20;;;37.20;43.10;;;;;;5055092;28;20528;-78
2022/07/07 08:02:50;;;;;;;13.52;9.30;;;37.70;42.30;;;;;;5041968;28;20645;-80
2022/07/07 08:05:16;;;;;;;;;;;38.10;42.00;;;;;;5036103;28;20367;-80
2022/07/07 08:07:43;;;;;;;9.98;8.70;;;39.50;42.00;;;;;;5045077;28;19905;-80
2022/07/07 08:10:13;;;;;;;11.88;8.93;;;40.10;39.20;;;;;;5062183;28;20031;-79
2022/07/07 08:12:40;;;;;;;12.15;9.15;;;40.80;38.80;;;;;;5060470;28;20429;-79
2022/07/07 08:15:07;;;;;;;11.27;8.60;;;41.50;37.40;;;;;;5061870;28;20029;-80
2022/07/07 08:17:33;;;;;;;10.27;9.27;;;42.10;36.60;;;;;;5061534;28;20047;-80
2022/07/07 08:19:59;;;;;;;;;;;41.70;36.80;;;;;;5040297;28;20029;-79
2022/07/07 08:22:24;;;;;;;10.80;9.30;;;40.70;36.80;;;;;;5055928;28;19913;-79
2022/07/07 08:24:50;;;;;;;10.38;9.38;;;38.50;38.90;;;;;;5059957;28;20390;-79
2022/07/07 08:27:16;;;;;;;16.27;9.40;;;37.70;40.60;;;;;;5041455;28;20445;-80
2022/07/07 08:29:42;;;;;;;11.00;8.90;;;38.70;40.10;;;;;;5024926;28;20087;-79
2022/07/07 08:32:16;;;;;;;10.05;9.02;;;40.60;38.20;;;;;;5057157;28;20052;-78
2022/07/07 08:34:42;;;;;;;12.00;8.80;;;42.00;36.40;;;;;;5055975;28;20112;-81
2022/07/07 08:37:09;;;;;;;9.60;8.25;;;42.40;35.70;;;;;;5056462;28;20025;-81
2022/07/07 08:39:35;;;;;;;8.90;8.07;;;42.70;34.90;;;;;;5054542;28;20031;-80
2022/07/07 08:42:01;;;;;;;;;;;42.10;35.30;;;;;;5056850;28;20017;-82
2022/07/07 08:44:27;;;;;;;16.48;8.85;;;41.60;36.90;;;;;;5037971;28;20321;-81
2022/07/07 08:46:53;;;;;;;10.52;9.52;;;42.20;36.00;;;;;;5056860;28;20025;-80
2022/07/07 08:49:19;;;;;;;10.02;9.05;;;43.40;35.50;;;;;;5038687;28;20049;-82
2022/07/07 08:51:46;;;;;;;10.70;8.82;;;44.70;34.70;;;;;;5055404;28;20021;-81
2022/07/07 08:54:14;;;;;;;9.60;8.35;;;45.30;33.60;;;;;;5053648;28;20029;-78
2022/07/07 08:56:41;;;;;;;9.88;8.90;;;45.10;32.90;;;;;;5041041;28;20065;-79
2022/07/07 08:59:08;;;;;;;10.65;9.63;;;43.00;33.90;;;;;;5042289;28;20025;-80
2022/07/07 09:01:35;;;;;;;11.00;8.68;;;40.80;36.10;;;;;;5039644;28;20041;-79
2022/07/07 09:04:01;;;;;;;12.18;10.65;;;38.90;38.30;;;;;;5055291;28;20494;-80
2022/07/07 09:06:27;;;;;;;;;;;38.10;39.90;;;;;;5036892;28;20054;-79
2022/07/07 09:08:54;;;;;;;16.13;11.20;;;38.40;40.00;;;;;;5054758;28;19905;-80
2022/07/07 09:11:26;;;;;;;15.30;9.90;;;38.30;40.00;;;;;;5055051;28;20033;-80
2022/07/07 09:13:56;;;;;;;15.07;9.85;;;39.10;40.20;;;;;;5055289;28;20039;-80
2022/07/07 09:16:23;;;;;;;10.70;9.80;;;40.90;38.40;;;;;;5054725;28;20084;-79
2022/07/07 09:18:49;;;;;;;12.23;9.25;;;42.50;37.10;;;;;;5054543;28;20356;-80
2022/07/07 09:21:30;;;;;;;10.02;9.07;;;43.40;35.30;;;;;;5054332;28;20025;-80
2022/07/07 09:24:01;;;;;;;9.48;8.55;;;42.90;35.40;;;;;;5020003;28;20025;-81
2022/07/07 09:26:37;;;;;;;10.35;8.68;;;43.00;35.20;;;;;;5047656;28;20029;-80
2022/07/07 09:29:04;;;;;;;11.05;8.40;;;43.40;34.90;;;;;;5053705;28;20024;-82
2022/07/07 09:31:52;;;;;;;9.30;8.40;;;43.40;34.40;;;;;;5056588;28;20090;-80
2022/07/07 09:34:20;;;;;;;9.50;8.70;;;42.50;34.90;;;;;;5047163;28;20083;-78
2022/07/07 09:39:46;;;;;;;11.95;10.57;;;37.60;39.90;;;;;;5055375;28;20457;-80
2022/07/07 09:42:21;;;;;;;10.98;10.02;;;35.60;42.90;;;;;;5054818;28;20107;-80
2022/07/07 09:44:55;;;;;;;14.98;10.35;;;34.60;44.60;;;;;;5054873;28;20336;-80
2022/07/07 09:47:22;;;;;;;14.57;10.75;;;33.90;46.00;;;;;;5054654;28;20025;-81
2022/07/07 09:50:06;;;;;;;40.08;15.93;;;33.70;46.80;;;;;;5056510;28;20029;-81
2022/07/07 09:52:34;;;;;;;14.25;12.07;;;33.80;46.70;;;;;;5037687;28;20359;-80
2022/07/07 09:55:01;;;;;;;13.30;11.75;;;34.30;46.50;;;;;;5055820;28;20036;-80
2022/07/07 09:57:27;;;;;;;15.65;12.13;;;34.50;46.60;;;;;;5044885;28;20025;-81
2022/07/07 09:59:53;;;;;;;12.77;10.57;;;35.30;45.70;;;;;;5034354;28;20446;-84
2022/07/07 10:02:27;;;;;;;12.35;11.23;;;36.50;44.40;;;;;;5053279;28;20052;-79
2022/07/07 10:04:55;;;;;;;10.90;9.90;;;36.50;42.70;;;;;;5054073;28;20021;-82
2022/07/07 10:07:29;;;;;;;11.07;10.07;;;35.40;44.10;;;;;;5054493;28;20025;-79
2022/07/07 10:10:00;;;;;;;13.68;10.65;;;35.10;44.70;;;;;;5054471;28;20025;-80
2022/07/07 10:12:28;;;;;;;15.07;11.40;;;35.00;45.00;;;;;;5055573;28;20027;-79
2022/07/07 10:14:59;;;;;;;15.75;10.13;;;35.10;46.00;;;;;;5054721;28;20071;-80
2022/07/07 10:17:26;;;;;;;10.68;9.15;;;36.30;43.80;;;;;;5052273;28;20105;-81
2022/07/07 10:19:52;;;;;;;9.68;8.73;;;36.70;42.70;;;;;;5052530;28;20013;-80
2022/07/07 10:22:21;;;;;;;11.10;9.70;;;36.60;42.60;;;;;;5053358;28;20390;-80
2022/07/07 10:24:47;;;;;;;10.32;9.38;;;36.40;42.50;;;;;;5053508;28;20025;-79
2022/07/07 10:27:20;;;;;;;;;;;36.50;42.90;;;;;;5034145;28;20055;-81
2022/07/07 10:29:57;;;;;;;13.18;9.55;;;37.00;42.60;;;;;;5035569;28;19916;-80
2022/07/07 10:32:51;;;;;;;11.20;9.73;;;36.80;41.90;;;;;;5025799;28;20372;-80
2022/07/07 10:35:18;;;;;;;15.05;9.65;;;36.10;43.00;;;;;;5053745;28;20090;-79
2022/07/07 10:37:52;;;;;;;12.07;10.55;;;35.40;44.40;;;;;;5056495;28;20051;-80
2022/07/07 10:40:21;;;;;;;11.10;10.10;;;34.70;45.10;;;;;;5066652;28;20021;-80
2022/07/07 10:42:59;;;;;;;11.15;10.05;;;34.20;46.40;;;;;;5060289;28;20013;-81
2022/07/07 10:45:28;;;;;;;10.13;9.23;;;34.10;46.30;;;;;;5052264;28;20032;-81
2022/07/07 10:47:54;;;;;;;12.57;10.27;;;34.20;46.20;;;;;;5052793;28;20022;-81
2022/07/07 10:50:31;;;;;;;10.17;9.37;;;34.40;45.80;;;;;;5053757;28;20035;-81
2022/07/07 10:52:58;;;;;;;11.18;10.02;;;34.40;45.30;;;;;;5051081;28;20060;-80
2022/07/07 10:56:02;;;;;;;10.48;9.50;;;34.30;45.10;;;;;;5046860;28;20025;-80
2022/07/07 10:58:55;;;;;;;11.32;9.73;;;34.10;45.30;;;;;;5040401;28;20437;-83
2022/07/07 11:01:23;;;;;;;11.55;10.38;;;34.30;45.80;;;;;;5049602;28;20040;-80
2022/07/07 11:03:49;;;;;;;11.73;10.50;;;34.50;45.70;;;;;;5052731;28;20032;-82
2022/07/07 11:06:15;;;;;;;11.17;10.17;;;34.50;45.20;;;;;;5052156;28;20104;-81
2022/07/07 11:08:41;;;;;;;11.83;10.67;;;34.30;45.10;;;;;;5033935;28;20130;-80
2022/07/07 11:11:07;;;;;;;11.75;10.50;;;34.10;45.50;;;;;;5052824;28;20017;-80
2022/07/07 11:13:38;;;;;;;14.02;10.20;;;33.80;46.40;;;;;;5053080;28;20037;-81
2022/07/07 11:16:16;;;;;;;11.45;10.25;;;33.40;47.00;;;;;;5055378;28;20025;-80
2022/07/07 11:18:47;;;;;;;12.25;11.18;;;33.10;47.50;;;;;;5040326;28;20020;-80
2022/07/07 11:21:12;;;;;;;13.68;11.68;;;33.00;48.40;;;;;;5061336;28;20028;-79
2022/07/07 11:23:55;;;;;;;12.13;10.47;;;33.00;49.00;;;;;;5038728;28;20478;-78
2022/07/07 11:26:26;;;;;;;11.88;10.68;;;33.00;47.80;;;;;;5057303;28;20029;-80
2022/07/07 11:28:54;;;;;;;15.10;9.93;;;33.00;48.00;;;;;;5061776;28;20036;-80
2022/07/07 11:31:20;;;;;;;11.60;10.40;;;32.90;46.70;;;;;;5038326;28;20029;-81
2022/07/07 11:33:54;;;;;;;38.30;12.32;;;32.80;46.90;;;;;;5059359;28;20115;-80
2022/07/07 11:36:29;;;;;;;14.10;9.88;;;32.80;47.00;;;;;;5053895;28;20029;-78
2022/07/07 11:38:59;;;;;;;9.85;8.85;;;32.80;46.80;;;;;;5053186;28;20033;-79
2022/07/07 11:41:45;;;;;;;10.38;9.27;;;32.70;46.40;;;;;;5053475;28;20021;-79
2022/07/07 11:44:22;;;;;;;10.40;9.50;;;32.40;47.70;;;;;;5046186;28;20356;-80
2022/07/07 11:46:50;;;;;;;11.27;10.15;;;32.30;48.10;;;;;;5053016;28;20430;-79
2022/07/07 11:49:17;;;;;;;10.35;9.18;;;32.40;47.00;;;;;;5052691;28;20460;-80
2022/07/07 11:51:45;;;;;;;11.10;9.50;;;32.40;47.20;;;;;;5052251;28;20100;-80
2022/07/07 11:54:11;;;;;;;15.25;8.48;;;32.50;47.00;;;;;;5051587;28;20028;-79
2022/07/07 11:56:37;;;;;;;18.17;11.38;;;32.60;47.00;;;;;;5033898;28;20385;-78
2022/07/07 11:59:04;;;;;;;31.37;12.27;;;32.70;47.00;;;;;;5050850;28;20037;-80
2022/07/07 12:01:33;;;;;;;12.55;9.85;;;32.90;47.30;;;;;;5051844;28;20116;-81
2022/07/07 12:04:02;;;;;;;13.75;10.40;;;33.00;46.70;;;;;;5052938;28;20169;-81
2022/07/07 12:06:28;;;;;;;11.00;9.57;;;33.00;47.20;;;;;;5052060;28;20085;-77
2022/07/07 12:08:55;;;;;;;10.30;9.30;;;33.00;47.60;;;;;;5052176;28;20467;-80
2022/07/07 12:11:21;;;;;;;9.95;9.05;;;33.10;45.70;;;;;;5051194;28;20062;-79
2022/07/07 12:13:47;;;;;;;14.67;9.03;;;32.90;45.60;;;;;;5038853;28;20521;-82
2022/07/07 12:16:13;;;;;;;11.60;9.80;;;32.40;46.20;;;;;;5056685;28;20025;-79
2022/07/07 12:18:42;;;;;;;10.48;9.57;;;32.20;46.70;;;;;;5055055;28;20483;-80
2022/07/07 12:21:13;;;;;;;10.38;9.32;;;32.20;46.80;;;;;;5055935;28;20029;-79
2022/07/07 12:23:43;;;;;;;11.13;9.13;;;32.30;46.80;;;;;;5055361;28;20033;-82
2022/07/07 12:26:14;;;;;;;17.00;9.93;;;32.20;47.00;;;;;;5056454;28;20025;-81
2022/07/07 12:28:41;;;;;;;46.20;14.95;;;32.10;47.50;;;;;;5055814;28;20024;-82
2022/07/07 12:31:07;;;;;;;16.98;10.43;;;32.00;47.70;;;;;;5054731;28;20391;-78
2022/07/07 12:33:39;;;;;;;11.55;10.48;;;31.90;47.80;;;;;;5055726;28;20029;-81
2022/07/07 12:36:17;;;;;;;13.48;10.48;;;31.80;48.10;;;;;;5038985;28;20021;-81
2022/07/07 12:38:53;;;;;;;12.38;9.95;;;31.80;48.40;;;;;;5056448;28;20048;-81
2022/07/07 12:41:26;;;;;;;12.77;11.43;;;31.80;48.80;;;;;;5056294;28;20024;-80